sensor_id;sensor_type;location;lat;lon;timestamp;temperature;humidity
6792;DHT22;3433;48.730;9.108;2023-07-24T00:00:32;21.90;80.10
6792;DHT22;3433;48.730;9.108;2023-07-24T00:03:21;21.90;80.80
6792;DHT22;3433;48.730;9.108;2023-07-24T00:06:09;21.90;80.80
6792;DHT22;3433;48.730;9.108;2023-07-24T00:08:56;21.90;80.90
6792;DHT22;3433;48.730;9.108;2023-07-24T00:11:44;21.90;81.30
6792;DHT22;3433;48.730;9.108;2023-07-24T00:14:31;21.90;81.30
6792;DHT22;3433;48.730;9.108;2023-07-24T00:17:18;21.90;81.20
6792;DHT22;3433;48.730;9.108;2023-07-24T00:20:06;21.80;82.40
6792;DHT22;3433;48.730;9.108;2023-07-24T00:22:55;22.00;83.50
6792;DHT22;3433;48.730;9.108;2023-07-24T00:25:43;22.00;83.50
6792;DHT22;3433;48.730;9.108;2023-07-24T00:28:30;21.90;83.20
6792;DHT22;3433;48.730;9.108;2023-07-24T00:31:17;21.90;83.50
6792;DHT22;3433;48.730;9.108;2023-07-24T00:34:04;22.00;84.80
6792;DHT22;3433;48.730;9.108;2023-07-24T00:36:51;21.90;86.30
6792;DHT22;3433;48.730;9.108;2023-07-24T00:39:40;21.80;85.20
6792;DHT22;3433;48.730;9.108;2023-07-24T00:42:27;21.70;84.90
6792;DHT22;3433;48.730;9.108;2023-07-24T00:45:15;21.60;86.50
6792;DHT22;3433;48.730;9.108;2023-07-24T00:48:02;21.50;86.20
6792;DHT22;3433;48.730;9.108;2023-07-24T00:50:50;21.50;86.20
6792;DHT22;3433;48.730;9.108;2023-07-24T00:53:37;21.40;86.30
6792;DHT22;3433;48.730;9.108;2023-07-24T00:56:26;21.50;87.30
6792;DHT22;3433;48.730;9.108;2023-07-24T00:59:14;21.50;88.50
6792;DHT22;3433;48.730;9.108;2023-07-24T01:02:02;21.40;87.60
6792;DHT22;3433;48.730;9.108;2023-07-24T01:04:49;21.40;89.40
6792;DHT22;3433;48.730;9.108;2023-07-24T01:07:36;21.40;88.80
6792;DHT22;3433;48.730;9.108;2023-07-24T01:10:24;21.30;88.00
6792;DHT22;3433;48.730;9.108;2023-07-24T01:13:17;21.40;90.40
6792;DHT22;3433;48.730;9.108;2023-07-24T01:16:09;21.30;90.00
6792;DHT22;3433;48.730;9.108;2023-07-24T01:18:59;21.10;88.90
6792;DHT22;3433;48.730;9.108;2023-07-24T01:21:58;21.10;88.90
6792;DHT22;3433;48.730;9.108;2023-07-24T01:25:09;21.10;90.00
6792;DHT22;3433;48.730;9.108;2023-07-24T01:27:58;21.00;89.60
6792;DHT22;3433;48.730;9.108;2023-07-24T01:30:46;21.10;90.60
6792;DHT22;3433;48.730;9.108;2023-07-24T01:33:33;21.00;89.60
6792;DHT22;3433;48.730;9.108;2023-07-24T01:36:21;21.00;89.30
6792;DHT22;3433;48.730;9.108;2023-07-24T01:39:09;20.80;88.80
6792;DHT22;3433;48.730;9.108;2023-07-24T01:41:57;20.80;88.70
6792;DHT22;3433;48.730;9.108;2023-07-24T01:44:51;20.80;88.70
6792;DHT22;3433;48.730;9.108;2023-07-24T01:47:38;20.80;88.80
6792;DHT22;3433;48.730;9.108;2023-07-24T01:50:25;20.70;89.00
6792;DHT22;3433;48.730;9.108;2023-07-24T01:53:12;20.70;88.80
6792;DHT22;3433;48.730;9.108;2023-07-24T01:56:00;20.70;88.80
6792;DHT22;3433;48.730;9.108;2023-07-24T01:58:47;20.60;89.10
6792;DHT22;3433;48.730;9.108;2023-07-24T02:01:35;20.60;88.70
6792;DHT22;3433;48.730;9.108;2023-07-24T02:04:23;20.50;88.90
6792;DHT22;3433;48.730;9.108;2023-07-24T02:07:10;20.50;88.30
6792;DHT22;3433;48.730;9.108;2023-07-24T02:09:57;20.50;88.60
6792;DHT22;3433;48.730;9.108;2023-07-24T02:12:44;20.40;88.40
6792;DHT22;3433;48.730;9.108;2023-07-24T02:15:31;20.40;88.40
6792;DHT22;3433;48.730;9.108;2023-07-24T02:18:20;20.40;88.70
6792;DHT22;3433;48.730;9.108;2023-07-24T02:21:07;20.40;89.00
6792;DHT22;3433;48.730;9.108;2023-07-24T02:23:54;20.30;88.80
6792;DHT22;3433;48.730;9.108;2023-07-24T02:26:41;20.30;88.90
6792;DHT22;3433;48.730;9.108;2023-07-24T02:29:29;20.30;89.00
6792;DHT22;3433;48.730;9.108;2023-07-24T02:32:16;20.30;89.00
6792;DHT22;3433;48.730;9.108;2023-07-24T02:35:06;20.20;89.30
6792;DHT22;3433;48.730;9.108;2023-07-24T02:37:53;20.20;89.20
6792;DHT22;3433;48.730;9.108;2023-07-24T02:40:41;20.10;88.70
6792;DHT22;3433;48.730;9.108;2023-07-24T02:43:28;20.10;89.20
6792;DHT22;3433;48.730;9.108;2023-07-24T02:46:15;20.10;89.10
6792;DHT22;3433;48.730;9.108;2023-07-24T02:49:02;20.10;89.20
6792;DHT22;3433;48.730;9.108;2023-07-24T02:51:52;20.00;88.90
6792;DHT22;3433;48.730;9.108;2023-07-24T02:54:39;20.00;88.90
6792;DHT22;3433;48.730;9.108;2023-07-24T02:57:26;20.00;89.20
6792;DHT22;3433;48.730;9.108;2023-07-24T03:00:14;20.00;89.70
6792;DHT22;3433;48.730;9.108;2023-07-24T03:03:01;19.90;89.40
6792;DHT22;3433;48.730;9.108;2023-07-24T03:05:48;19.90;89.30
6792;DHT22;3433;48.730;9.108;2023-07-24T03:08:36;19.90;89.40
6792;DHT22;3433;48.730;9.108;2023-07-24T03:11:24;19.80;89.50
6792;DHT22;3433;48.730;9.108;2023-07-24T03:14:11;19.80;89.60
6792;DHT22;3433;48.730;9.108;2023-07-24T03:16:58;19.80;89.40
6792;DHT22;3433;48.730;9.108;2023-07-24T03:19:45;19.80;90.20
6792;DHT22;3433;48.730;9.108;2023-07-24T03:22:32;19.70;89.90
6792;DHT22;3433;48.730;9.108;2023-07-24T03:25:21;19.70;90.30
6792;DHT22;3433;48.730;9.108;2023-07-24T03:28:09;19.70;90.00
6792;DHT22;3433;48.730;9.108;2023-07-24T03:30:56;19.60;90.00
6792;DHT22;3433;48.730;9.108;2023-07-24T03:33:44;19.60;90.10
6792;DHT22;3433;48.730;9.108;2023-07-24T03:36:31;19.50;90.00
6792;DHT22;3433;48.730;9.108;2023-07-24T03:39:18;19.50;90.10
6792;DHT22;3433;48.730;9.108;2023-07-24T03:42:09;19.50;90.10
6792;DHT22;3433;48.730;9.108;2023-07-24T03:44:58;19.50;90.20
6792;DHT22;3433;48.730;9.108;2023-07-24T03:47:45;19.50;90.10
6792;DHT22;3433;48.730;9.108;2023-07-24T03:50:32;19.50;90.30
6792;DHT22;3433;48.730;9.108;2023-07-24T03:53:20;19.50;90.30
6792;DHT22;3433;48.730;9.108;2023-07-24T03:56:07;19.60;90.50
6792;DHT22;3433;48.730;9.108;2023-07-24T03:58:55;19.60;90.60
6792;DHT22;3433;48.730;9.108;2023-07-24T04:01:43;19.60;90.90
6792;DHT22;3433;48.730;9.108;2023-07-24T04:04:30;19.60;90.70
6792;DHT22;3433;48.730;9.108;2023-07-24T04:07:18;19.60;90.70
6792;DHT22;3433;48.730;9.108;2023-07-24T04:10:06;19.60;90.80
6792;DHT22;3433;48.730;9.108;2023-07-24T04:12:54;19.60;91.00
6792;DHT22;3433;48.730;9.108;2023-07-24T04:15:42;19.60;90.80
6792;DHT22;3433;48.730;9.108;2023-07-24T04:18:30;19.70;91.00
6792;DHT22;3433;48.730;9.108;2023-07-24T04:21:17;19.80;91.30
6792;DHT22;3433;48.730;9.108;2023-07-24T04:24:05;19.70;91.20
6792;DHT22;3433;48.730;9.108;2023-07-24T04:26:52;19.80;91.30
6792;DHT22;3433;48.730;9.108;2023-07-24T04:29:39;19.90;91.20
6792;DHT22;3433;48.730;9.108;2023-07-24T04:32:28;19.90;91.30
6792;DHT22;3433;48.730;9.108;2023-07-24T04:35:15;20.00;91.50
6792;DHT22;3433;48.730;9.108;2023-07-24T04:38:02;20.10;91.60
6792;DHT22;3433;48.730;9.108;2023-07-24T04:40:49;20.10;91.60
6792;DHT22;3433;48.730;9.108;2023-07-24T04:43:37;20.10;91.70
6792;DHT22;3433;48.730;9.108;2023-07-24T04:46:24;20.10;91.40
6792;DHT22;3433;48.730;9.108;2023-07-24T04:49:12;20.20;91.80
6792;DHT22;3433;48.730;9.108;2023-07-24T04:51:59;20.20;91.80
6792;DHT22;3433;48.730;9.108;2023-07-24T04:54:47;20.30;91.70
6792;DHT22;3433;48.730;9.108;2023-07-24T04:57:34;20.20;91.80
6792;DHT22;3433;48.730;9.108;2023-07-24T05:00:21;20.30;91.20
6792;DHT22;3433;48.730;9.108;2023-07-24T05:03:08;20.30;91.30
6792;DHT22;3433;48.730;9.108;2023-07-24T05:05:58;20.40;91.60
6792;DHT22;3433;48.730;9.108;2023-07-24T05:08:45;20.40;91.60
6792;DHT22;3433;48.730;9.108;2023-07-24T05:11:32;20.50;91.90
6792;DHT22;3433;48.730;9.108;2023-07-24T05:14:20;20.50;91.70
6792;DHT22;3433;48.730;9.108;2023-07-24T05:17:07;20.70;92.40
6792;DHT22;3433;48.730;9.108;2023-07-24T05:19:54;20.70;91.80
6792;DHT22;3433;48.730;9.108;2023-07-24T05:22:42;20.70;92.00
6792;DHT22;3433;48.730;9.108;2023-07-24T05:25:30;20.80;92.10
6792;DHT22;3433;48.730;9.108;2023-07-24T05:28:17;20.80;91.90
6792;DHT22;3433;48.730;9.108;2023-07-24T05:31:05;20.90;91.50
6792;DHT22;3433;48.730;9.108;2023-07-24T05:33:53;20.80;91.30
6792;DHT22;3433;48.730;9.108;2023-07-24T05:36:41;20.90;91.30
6792;DHT22;3433;48.730;9.108;2023-07-24T05:39:30;20.80;91.80
6792;DHT22;3433;48.730;9.108;2023-07-24T05:42:18;20.80;92.00
6792;DHT22;3433;48.730;9.108;2023-07-24T05:45:07;20.80;91.80
6792;DHT22;3433;48.730;9.108;2023-07-24T05:47:54;20.80;91.50
6792;DHT22;3433;48.730;9.108;2023-07-24T05:50:41;20.80;91.20
6792;DHT22;3433;48.730;9.108;2023-07-24T05:53:28;20.80;91.20
6792;DHT22;3433;48.730;9.108;2023-07-24T05:56:17;20.90;91.20
6792;DHT22;3433;48.730;9.108;2023-07-24T05:59:04;20.90;91.10
6792;DHT22;3433;48.730;9.108;2023-07-24T06:01:51;20.90;91.00
6792;DHT22;3433;48.730;9.108;2023-07-24T06:04:39;20.90;91.10
6792;DHT22;3433;48.730;9.108;2023-07-24T06:07:26;21.00;91.10
6792;DHT22;3433;48.730;9.108;2023-07-24T06:10:13;21.00;90.90
6792;DHT22;3433;48.730;9.108;2023-07-24T06:13:02;21.10;90.80
6792;DHT22;3433;48.730;9.108;2023-07-24T06:15:50;21.10;90.90
6792;DHT22;3433;48.730;9.108;2023-07-24T06:18:37;21.10;90.80
6792;DHT22;3433;48.730;9.108;2023-07-24T06:21:24;21.20;90.90
6792;DHT22;3433;48.730;9.108;2023-07-24T06:24:11;21.20;90.80
6792;DHT22;3433;48.730;9.108;2023-07-24T06:26:59;21.20;90.80
6792;DHT22;3433;48.730;9.108;2023-07-24T06:29:47;21.30;90.90
6792;DHT22;3433;48.730;9.108;2023-07-24T06:32:34;21.20;91.00
6792;DHT22;3433;48.730;9.108;2023-07-24T06:35:22;21.20;91.00
6792;DHT22;3433;48.730;9.108;2023-07-24T06:38:09;21.30;91.00
6792;DHT22;3433;48.730;9.108;2023-07-24T06:40:56;21.30;91.20
6792;DHT22;3433;48.730;9.108;2023-07-24T06:43:43;21.40;91.10
6792;DHT22;3433;48.730;9.108;2023-07-24T06:46:32;21.40;91.10
6792;DHT22;3433;48.730;9.108;2023-07-24T06:49:19;21.40;91.20
6792;DHT22;3433;48.730;9.108;2023-07-24T06:52:06;21.50;91.20
6792;DHT22;3433;48.730;9.108;2023-07-24T06:54:54;21.50;91.30
6792;DHT22;3433;48.730;9.108;2023-07-24T06:57:41;21.50;91.30
6792;DHT22;3433;48.730;9.108;2023-07-24T07:00:28;21.50;91.50
6792;DHT22;3433;48.730;9.108;2023-07-24T07:03:16;21.60;91.30
6792;DHT22;3433;48.730;9.108;2023-07-24T07:06:04;21.60;91.20
6792;DHT22;3433;48.730;9.108;2023-07-24T07:08:52;21.70;91.20
6792;DHT22;3433;48.730;9.108;2023-07-24T07:11:39;21.80;91.20
6792;DHT22;3433;48.730;9.108;2023-07-24T07:14:29;21.80;91.30
6792;DHT22;3433;48.730;9.108;2023-07-24T07:17:16;21.80;91.60
6792;DHT22;3433;48.730;9.108;2023-07-24T07:20:06;21.90;91.60
6792;DHT22;3433;48.730;9.108;2023-07-24T07:22:53;21.90;91.50
6792;DHT22;3433;48.730;9.108;2023-07-24T07:25:41;21.90;91.40
6792;DHT22;3433;48.730;9.108;2023-07-24T07:28:29;22.00;91.50
6792;DHT22;3433;48.730;9.108;2023-07-24T07:31:16;22.00;91.60
6792;DHT22;3433;48.730;9.108;2023-07-24T07:34:03;22.00;91.50
6792;DHT22;3433;48.730;9.108;2023-07-24T07:36:52;22.00;91.50
6792;DHT22;3433;48.730;9.108;2023-07-24T07:39:39;22.00;92.30
6792;DHT22;3433;48.730;9.108;2023-07-24T07:42:26;22.10;92.20
6792;DHT22;3433;48.730;9.108;2023-07-24T07:45:13;22.20;91.90
6792;DHT22;3433;48.730;9.108;2023-07-24T07:48:00;22.20;92.00
6792;DHT22;3433;48.730;9.108;2023-07-24T07:50:50;22.30;91.90
6792;DHT22;3433;48.730;9.108;2023-07-24T07:53:38;22.30;91.70
6792;DHT22;3433;48.730;9.108;2023-07-24T07:56:26;22.30;91.90
6792;DHT22;3433;48.730;9.108;2023-07-24T07:59:13;22.30;92.00
6792;DHT22;3433;48.730;9.108;2023-07-24T08:02:00;22.30;92.10
6792;DHT22;3433;48.730;9.108;2023-07-24T08:04:47;22.30;92.20
6792;DHT22;3433;48.730;9.108;2023-07-24T08:07:35;22.40;92.30
6792;DHT22;3433;48.730;9.108;2023-07-24T08:10:23;22.40;92.40
6792;DHT22;3433;48.730;9.108;2023-07-24T08:13:10;22.30;92.40
6792;DHT22;3433;48.730;9.108;2023-07-24T08:15:58;22.30;92.90
6792;DHT22;3433;48.730;9.108;2023-07-24T08:18:48;22.30;94.50
6792;DHT22;3433;48.730;9.108;2023-07-24T08:21:35;22.20;94.80
6792;DHT22;3433;48.730;9.108;2023-07-24T08:24:24;22.20;94.80
6792;DHT22;3433;48.730;9.108;2023-07-24T08:27:13;22.10;96.20
6792;DHT22;3433;48.730;9.108;2023-07-24T08:30:00;22.00;95.60
6792;DHT22;3433;48.730;9.108;2023-07-24T08:32:47;21.90;95.90
6792;DHT22;3433;48.730;9.108;2023-07-24T08:35:36;22.00;96.20
6792;DHT22;3433;48.730;9.108;2023-07-24T08:38:23;21.90;95.90
6792;DHT22;3433;48.730;9.108;2023-07-24T08:41:12;21.90;95.80
6792;DHT22;3433;48.730;9.108;2023-07-24T08:44:01;21.90;95.40
6792;DHT22;3433;48.730;9.108;2023-07-24T08:46:49;21.80;95.70
6792;DHT22;3433;48.730;9.108;2023-07-24T08:49:37;21.80;96.00
6792;DHT22;3433;48.730;9.108;2023-07-24T08:52:26;21.90;96.60
6792;DHT22;3433;48.730;9.108;2023-07-24T08:55:13;21.80;96.80
6792;DHT22;3433;48.730;9.108;2023-07-24T08:58:00;21.90;96.50
6792;DHT22;3433;48.730;9.108;2023-07-24T09:00:51;21.90;97.10
6792;DHT22;3433;48.730;9.108;2023-07-24T09:03:38;21.90;97.20
6792;DHT22;3433;48.730;9.108;2023-07-24T09:06:26;21.90;97.20
6792;DHT22;3433;48.730;9.108;2023-07-24T09:09:14;21.90;98.60
6792;DHT22;3433;48.730;9.108;2023-07-24T09:12:01;21.90;98.40
6792;DHT22;3433;48.730;9.108;2023-07-24T09:14:48;22.00;97.30
6792;DHT22;3433;48.730;9.108;2023-07-24T09:17:47;22.00;97.90
6792;DHT22;3433;48.730;9.108;2023-07-24T09:20:39;22.00;97.70
6792;DHT22;3433;48.730;9.108;2023-07-24T09:23:27;22.00;98.20
6792;DHT22;3433;48.730;9.108;2023-07-24T09:26:15;22.10;97.80
6792;DHT22;3433;48.730;9.108;2023-07-24T09:29:02;22.10;98.70
6792;DHT22;3433;48.730;9.108;2023-07-24T09:31:50;22.10;98.50
6792;DHT22;3433;48.730;9.108;2023-07-24T09:34:43;22.10;98.70
6792;DHT22;3433;48.730;9.108;2023-07-24T09:37:32;22.00;98.10
6792;DHT22;3433;48.730;9.108;2023-07-24T09:40:19;22.10;98.20
6792;DHT22;3433;48.730;9.108;2023-07-24T09:43:17;22.00;97.80
6792;DHT22;3433;48.730;9.108;2023-07-24T09:46:05;22.00;98.50
6792;DHT22;3433;48.730;9.108;2023-07-24T09:48:53;22.00;99.30
6792;DHT22;3433;48.730;9.108;2023-07-24T09:51:43;22.00;98.30
6792;DHT22;3433;48.730;9.108;2023-07-24T09:54:37;22.00;98.50
6792;DHT22;3433;48.730;9.108;2023-07-24T09:57:31;22.00;98.40
6792;DHT22;3433;48.730;9.108;2023-07-24T10:00:19;22.00;98.60
6792;DHT22;3433;48.730;9.108;2023-07-24T10:03:07;21.90;98.90
6792;DHT22;3433;48.730;9.108;2023-07-24T10:05:55;22.00;98.40
6792;DHT22;3433;48.730;9.108;2023-07-24T10:08:44;22.00;99.00
6792;DHT22;3433;48.730;9.108;2023-07-24T10:11:31;21.90;99.60
6792;DHT22;3433;48.730;9.108;2023-07-24T10:14:18;21.90;98.90
6792;DHT22;3433;48.730;9.108;2023-07-24T10:17:06;21.90;98.80
6792;DHT22;3433;48.730;9.108;2023-07-24T10:20:03;21.90;99.00
6792;DHT22;3433;48.730;9.108;2023-07-24T10:22:51;21.80;99.50
6792;DHT22;3433;48.730;9.108;2023-07-24T10:25:40;21.90;99.40
6792;DHT22;3433;48.730;9.108;2023-07-24T10:28:30;21.90;99.10
6792;DHT22;3433;48.730;9.108;2023-07-24T10:31:22;21.90;99.70
6792;DHT22;3433;48.730;9.108;2023-07-24T10:34:09;21.90;99.60
6792;DHT22;3433;48.730;9.108;2023-07-24T10:37:02;21.90;99.80
6792;DHT22;3433;48.730;9.108;2023-07-24T10:39:50;21.80;99.90
6792;DHT22;3433;48.730;9.108;2023-07-24T10:42:38;21.80;99.90
6792;DHT22;3433;48.730;9.108;2023-07-24T10:45:26;21.80;99.90
6792;DHT22;3433;48.730;9.108;2023-07-24T10:48:13;21.80;99.90
6792;DHT22;3433;48.730;9.108;2023-07-24T10:51:06;21.70;99.90
6792;DHT22;3433;48.730;9.108;2023-07-24T10:53:54;21.60;99.90
6792;DHT22;3433;48.730;9.108;2023-07-24T10:56:41;21.50;99.90
6792;DHT22;3433;48.730;9.108;2023-07-24T10:59:37;21.50;99.90
6792;DHT22;3433;48.730;9.108;2023-07-24T11:02:25;21.50;99.90
6792;DHT22;3433;48.730;9.108;2023-07-24T11:05:13;21.30;99.90
6792;DHT22;3433;48.730;9.108;2023-07-24T11:08:00;21.30;99.90
6792;DHT22;3433;48.730;9.108;2023-07-24T11:10:49;21.20;99.90
6792;DHT22;3433;48.730;9.108;2023-07-24T11:13:38;21.10;99.90
6792;DHT22;3433;48.730;9.108;2023-07-24T11:16:26;21.10;99.90
6792;DHT22;3433;48.730;9.108;2023-07-24T11:19:22;21.10;99.90
6792;DHT22;3433;48.730;9.108;2023-07-24T11:22:09;21.00;99.90
6792;DHT22;3433;48.730;9.108;2023-07-24T11:24:57;21.00;99.90
6792;DHT22;3433;48.730;9.108;2023-07-24T11:27:44;21.00;99.90
6792;DHT22;3433;48.730;9.108;2023-07-24T11:30:33;21.00;99.90
6792;DHT22;3433;48.730;9.108;2023-07-24T11:33:22;21.10;99.90
6792;DHT22;3433;48.730;9.108;2023-07-24T11:36:12;21.00;99.90
6792;DHT22;3433;48.730;9.108;2023-07-24T11:38:59;21.00;99.90
6792;DHT22;3433;48.730;9.108;2023-07-24T11:41:47;21.20;99.90
6792;DHT22;3433;48.730;9.108;2023-07-24T11:44:34;21.70;99.90
6792;DHT22;3433;48.730;9.108;2023-07-24T11:47:21;21.90;99.90
6792;DHT22;3433;48.730;9.108;2023-07-24T11:50:10;21.90;99.90
6792;DHT22;3433;48.730;9.108;2023-07-24T11:52:57;21.90;99.90
6792;DHT22;3433;48.730;9.108;2023-07-24T11:55:44;21.80;99.90
6792;DHT22;3433;48.730;9.108;2023-07-24T11:58:32;21.90;99.90
6792;DHT22;3433;48.730;9.108;2023-07-24T12:01:19;21.70;99.90
6792;DHT22;3433;48.730;9.108;2023-07-24T12:04:06;21.70;99.90
6792;DHT22;3433;48.730;9.108;2023-07-24T12:06:55;21.50;99.90
6792;DHT22;3433;48.730;9.108;2023-07-24T12:09:50;21.60;99.90
6792;DHT22;3433;48.730;9.108;2023-07-24T12:12:39;21.50;99.90
6792;DHT22;3433;48.730;9.108;2023-07-24T12:15:26;21.50;99.90
6792;DHT22;3433;48.730;9.108;2023-07-24T12:18:14;21.60;99.90
6792;DHT22;3433;48.730;9.108;2023-07-24T12:21:01;21.70;99.90
6792;DHT22;3433;48.730;9.108;2023-07-24T12:23:50;21.60;99.90
6792;DHT22;3433;48.730;9.108;2023-07-24T12:26:37;21.70;99.90
6792;DHT22;3433;48.730;9.108;2023-07-24T12:29:24;21.80;99.90
6792;DHT22;3433;48.730;9.108;2023-07-24T12:32:11;21.90;99.90
6792;DHT22;3433;48.730;9.108;2023-07-24T12:34:59;21.90;99.90
6792;DHT22;3433;48.730;9.108;2023-07-24T12:37:46;22.00;99.90
6792;DHT22;3433;48.730;9.108;2023-07-24T12:40:35;22.00;99.90
6792;DHT22;3433;48.730;9.108;2023-07-24T12:43:22;21.90;99.90
6792;DHT22;3433;48.730;9.108;2023-07-24T12:46:09;21.90;99.90
6792;DHT22;3433;48.730;9.108;2023-07-24T12:48:56;22.10;99.90
6792;DHT22;3433;48.730;9.108;2023-07-24T12:51:44;22.20;99.90
6792;DHT22;3433;48.730;9.108;2023-07-24T12:54:31;22.40;99.90
6792;DHT22;3433;48.730;9.108;2023-07-24T12:57:20;22.60;99.90
6792;DHT22;3433;48.730;9.108;2023-07-24T13:00:08;22.70;99.90
6792;DHT22;3433;48.730;9.108;2023-07-24T13:02:55;22.80;99.90
6792;DHT22;3433;48.730;9.108;2023-07-24T13:05:42;22.90;99.90
6792;DHT22;3433;48.730;9.108;2023-07-24T13:08:30;23.10;99.90
6792;DHT22;3433;48.730;9.108;2023-07-24T13:11:17;23.30;99.90
6792;DHT22;3433;48.730;9.108;2023-07-24T13:14:05;23.50;99.90
6792;DHT22;3433;48.730;9.108;2023-07-24T13:16:53;23.70;99.90
6792;DHT22;3433;48.730;9.108;2023-07-24T13:19:40;23.90;99.90
6792;DHT22;3433;48.730;9.108;2023-07-24T13:22:27;24.20;99.90
6792;DHT22;3433;48.730;9.108;2023-07-24T13:25:14;24.40;99.90
6792;DHT22;3433;48.730;9.108;2023-07-24T13:28:01;24.70;99.90
6792;DHT22;3433;48.730;9.108;2023-07-24T13:30:50;24.60;99.90
6792;DHT22;3433;48.730;9.108;2023-07-24T13:33:37;24.70;99.10
6792;DHT22;3433;48.730;9.108;2023-07-24T13:36:27;24.60;99.50
6792;DHT22;3433;48.730;9.108;2023-07-24T13:39:14;24.50;99.40
6792;DHT22;3433;48.730;9.108;2023-07-24T13:42:03;24.50;99.30
6792;DHT22;3433;48.730;9.108;2023-07-24T13:44:50;24.50;99.40
6792;DHT22;3433;48.730;9.108;2023-07-24T13:47:39;24.40;98.70
6792;DHT22;3433;48.730;9.108;2023-07-24T13:50:26;24.40;99.20
6792;DHT22;3433;48.730;9.108;2023-07-24T13:53:13;24.60;99.10
6792;DHT22;3433;48.730;9.108;2023-07-24T13:56:02;24.70;98.40
6792;DHT22;3433;48.730;9.108;2023-07-24T13:58:49;24.80;98.80
6792;DHT22;3433;48.730;9.108;2023-07-24T14:01:36;25.10;98.50
6792;DHT22;3433;48.730;9.108;2023-07-24T14:04:25;25.10;98.10
6792;DHT22;3433;48.730;9.108;2023-07-24T14:07:12;25.00;98.10
6792;DHT22;3433;48.730;9.108;2023-07-24T14:09:59;25.00;97.90
6792;DHT22;3433;48.730;9.108;2023-07-24T14:12:46;24.90;96.60
6792;DHT22;3433;48.730;9.108;2023-07-24T14:15:34;25.00;96.50
6792;DHT22;3433;48.730;9.108;2023-07-24T14:18:21;25.30;96.40
6792;DHT22;3433;48.730;9.108;2023-07-24T14:21:09;25.20;96.40
6792;DHT22;3433;48.730;9.108;2023-07-24T14:23:57;25.10;96.40
6792;DHT22;3433;48.730;9.108;2023-07-24T14:26:44;24.90;96.00
6792;DHT22;3433;48.730;9.108;2023-07-24T14:29:32;24.90;96.30
6792;DHT22;3433;48.730;9.108;2023-07-24T14:32:19;24.70;96.40
6792;DHT22;3433;48.730;9.108;2023-07-24T14:35:07;24.70;96.40
6792;DHT22;3433;48.730;9.108;2023-07-24T14:37:55;24.70;96.40
6792;DHT22;3433;48.730;9.108;2023-07-24T14:40:42;24.70;96.10
6792;DHT22;3433;48.730;9.108;2023-07-24T14:43:30;24.70;96.70
6792;DHT22;3433;48.730;9.108;2023-07-24T14:46:17;24.60;96.00
6792;DHT22;3433;48.730;9.108;2023-07-24T14:49:04;24.50;95.60
6792;DHT22;3433;48.730;9.108;2023-07-24T14:51:51;24.50;95.40
6792;DHT22;3433;48.730;9.108;2023-07-24T14:54:40;24.70;95.60
6792;DHT22;3433;48.730;9.108;2023-07-24T14:57:27;24.60;95.60
6792;DHT22;3433;48.730;9.108;2023-07-24T15:00:15;24.70;95.80
6792;DHT22;3433;48.730;9.108;2023-07-24T15:03:04;24.50;95.60
6792;DHT22;3433;48.730;9.108;2023-07-24T15:05:51;24.50;95.60
6792;DHT22;3433;48.730;9.108;2023-07-24T15:08:38;24.70;96.00
6792;DHT22;3433;48.730;9.108;2023-07-24T15:11:27;24.70;95.90
6792;DHT22;3433;48.730;9.108;2023-07-24T15:14:14;24.70;95.70
6792;DHT22;3433;48.730;9.108;2023-07-24T15:17:01;24.70;96.20
6792;DHT22;3433;48.730;9.108;2023-07-24T15:19:48;24.50;96.20
6792;DHT22;3433;48.730;9.108;2023-07-24T15:22:36;24.40;96.40
6792;DHT22;3433;48.730;9.108;2023-07-24T15:25:23;24.50;96.60
6792;DHT22;3433;48.730;9.108;2023-07-24T15:28:12;24.40;96.40
6792;DHT22;3433;48.730;9.108;2023-07-24T15:30:59;24.40;96.50
6792;DHT22;3433;48.730;9.108;2023-07-24T15:33:46;24.30;96.50
6792;DHT22;3433;48.730;9.108;2023-07-24T15:36:34;24.20;96.90
6792;DHT22;3433;48.730;9.108;2023-07-24T15:39:23;23.80;96.80
6792;DHT22;3433;48.730;9.108;2023-07-24T15:42:10;23.80;97.00
6792;DHT22;3433;48.730;9.108;2023-07-24T15:44:58;23.80;97.10
6792;DHT22;3433;48.730;9.108;2023-07-24T15:47:46;23.70;97.00
6792;DHT22;3433;48.730;9.108;2023-07-24T15:50:33;23.70;97.40
6792;DHT22;3433;48.730;9.108;2023-07-24T15:53:20;23.60;97.50
6792;DHT22;3433;48.730;9.108;2023-07-24T15:56:07;23.60;98.20
6792;DHT22;3433;48.730;9.108;2023-07-24T15:58:54;23.50;98.00
6792;DHT22;3433;48.730;9.108;2023-07-24T16:01:43;23.50;97.70
6792;DHT22;3433;48.730;9.108;2023-07-24T16:04:30;23.50;97.70
6792;DHT22;3433;48.730;9.108;2023-07-24T16:07:17;23.50;97.60
6792;DHT22;3433;48.730;9.108;2023-07-24T16:10:06;23.50;97.90
6792;DHT22;3433;48.730;9.108;2023-07-24T16:12:53;23.30;97.60
6792;DHT22;3433;48.730;9.108;2023-07-24T16:15:40;23.30;97.60
6792;DHT22;3433;48.730;9.108;2023-07-24T16:18:29;23.20;97.80
6792;DHT22;3433;48.730;9.108;2023-07-24T16:21:16;23.20;97.80
6792;DHT22;3433;48.730;9.108;2023-07-24T16:24:04;23.20;97.80
6792;DHT22;3433;48.730;9.108;2023-07-24T16:26:51;23.10;97.80
6792;DHT22;3433;48.730;9.108;2023-07-24T16:29:38;23.00;98.20
6792;DHT22;3433;48.730;9.108;2023-07-24T16:32:25;23.10;98.00
6792;DHT22;3433;48.730;9.108;2023-07-24T16:35:14;23.00;98.00
6792;DHT22;3433;48.730;9.108;2023-07-24T16:38:01;23.00;98.00
6792;DHT22;3433;48.730;9.108;2023-07-24T16:40:49;23.00;98.30
6792;DHT22;3433;48.730;9.108;2023-07-24T16:43:37;22.90;98.60
6792;DHT22;3433;48.730;9.108;2023-07-24T16:46:24;22.90;98.80
6792;DHT22;3433;48.730;9.108;2023-07-24T16:49:11;22.80;98.10
6792;DHT22;3433;48.730;9.108;2023-07-24T16:52:00;22.80;98.00
6792;DHT22;3433;48.730;9.108;2023-07-24T16:54:48;22.80;98.10
6792;DHT22;3433;48.730;9.108;2023-07-24T16:57:36;22.90;97.90
6792;DHT22;3433;48.730;9.108;2023-07-24T17:00:24;22.90;97.80
6792;DHT22;3433;48.730;9.108;2023-07-24T17:03:11;22.90;97.80
6792;DHT22;3433;48.730;9.108;2023-07-24T17:05:58;22.90;98.00
6792;DHT22;3433;48.730;9.108;2023-07-24T17:08:47;22.90;98.20
6792;DHT22;3433;48.730;9.108;2023-07-24T17:11:34;23.00;98.20
6792;DHT22;3433;48.730;9.108;2023-07-24T17:14:22;23.00;99.60
6792;DHT22;3433;48.730;9.108;2023-07-24T17:17:09;22.80;99.60
6792;DHT22;3433;48.730;9.108;2023-07-24T17:19:56;22.90;99.40
6792;DHT22;3433;48.730;9.108;2023-07-24T17:22:43;22.80;99.70
6792;DHT22;3433;48.730;9.108;2023-07-24T17:25:32;22.80;99.80
6792;DHT22;3433;48.730;9.108;2023-07-24T17:28:21;22.80;99.80
6792;DHT22;3433;48.730;9.108;2023-07-24T17:31:08;22.80;99.70
6792;DHT22;3433;48.730;9.108;2023-07-24T17:33:56;22.80;99.40
6792;DHT22;3433;48.730;9.108;2023-07-24T17:36:43;22.70;99.70
6792;DHT22;3433;48.730;9.108;2023-07-24T17:39:30;22.60;99.50
6792;DHT22;3433;48.730;9.108;2023-07-24T17:42:19;22.60;99.60
6792;DHT22;3433;48.730;9.108;2023-07-24T17:45:06;22.60;99.40
6792;DHT22;3433;48.730;9.108;2023-07-24T17:47:54;22.60;99.70
6792;DHT22;3433;48.730;9.108;2023-07-24T17:50:41;22.60;99.20
6792;DHT22;3433;48.730;9.108;2023-07-24T17:53:28;22.60;99.50
6792;DHT22;3433;48.730;9.108;2023-07-24T17:56:15;22.70;99.30
6792;DHT22;3433;48.730;9.108;2023-07-24T17:59:04;22.50;99.90
6792;DHT22;3433;48.730;9.108;2023-07-24T18:01:51;22.50;99.90
6792;DHT22;3433;48.730;9.108;2023-07-24T18:04:38;22.40;99.90
6792;DHT22;3433;48.730;9.108;2023-07-24T18:07:25;22.40;99.70
6792;DHT22;3433;48.730;9.108;2023-07-24T18:10:12;22.40;99.60
6792;DHT22;3433;48.730;9.108;2023-07-24T18:13:00;22.50;99.50
6792;DHT22;3433;48.730;9.108;2023-07-24T18:15:48;22.40;99.70